Haskell Heights, South Carolina
Current Conditions -  °F | °C
As of 2:53 AM on Friday 24 Oct 2014 (Local Time) from KCUB Reporting Station
Clear Clear  
Wind Chill: 50°   Ceiling: Unl
Heat Index: 50°   Visibility: 10mi
Dew Point: 47°   Wind: 5mph
Humidity: 89%   Direction: 50°NE
Pressure: 30.05"   Gusts: NA
Location:  34.1179°N, 81.0612°W
Report Text: KCUB 240653Z AUTO 05004KT 10SM CLR 10/08 A3005 RMK AO2 SLP173 T01000083
Loading
Personal Weather Stations






























Interactive Weather Map
Tropical Storm Tracking
New forecast layout! Learn more

10-Day Weather Forecast

Advertisements
Track Severe Weather on mobile